Time;durP1;ratioP1;P1;durP2;ratioP2;P2;SDS_P1;SDS_P2;PMS_P1;PMS_P2;Temp;Humidity;BMP_temperature;BMP_pressure;BME280_temperature;BME280_humidity;BME280_pressure;Samples;Min_cycle;Max_cycle;Signal;HPM_P1;HPM_P2
2021/10/04 00:01:09;;;;;;;10.45;7.55;;;;;;;5.95;81.86;98376.70;1746288;82;21077;-75
2021/10/04 00:03:39;;;;;;;13.15;7.75;;;;;;;5.90;82.73;98370.59;1747209;82;21001;-75
2021/10/04 00:06:07;;;;;;;10.53;8.15;;;;;;;5.88;81.89;98372.37;1739234;80;21066;-76
2021/10/04 00:08:34;;;;;;;14.33;8.08;;;;;;;5.87;81.67;98371.94;1713709;83;20928;-75
2021/10/04 00:11:01;;;;;;;14.55;8.30;;;;;;;5.87;83.39;98369.73;1750588;81;20944;-75
2021/10/04 00:13:28;;;;;;;16.87;8.43;;;;;;;5.81;85.31;98370.63;1750739;82;20976;-75
2021/10/04 00:15:55;;;;;;;11.45;7.72;;;;;;;5.76;83.17;98377.23;1750792;82;21464;-75
2021/10/04 00:18:22;;;;;;;14.15;8.43;;;;;;;5.73;83.14;98369.34;1761771;80;21397;-75
2021/10/04 00:20:49;;;;;;;13.45;8.00;;;;;;;5.73;83.88;98364.09;1746670;82;20990;-75
2021/10/04 00:23:15;;;;;;;10.65;7.12;;;;;;;5.74;82.78;98367.60;1746622;82;20990;-75
2021/10/04 00:25:42;;;;;;;11.57;7.92;;;;;;;5.76;82.34;98368.03;1747533;82;21042;-75
2021/10/04 00:28:09;;;;;;;15.32;8.10;;;;;;;5.76;82.41;98371.98;1758394;81;20936;-75
2021/10/04 00:30:35;;;;;;;10.60;7.00;;;;;;;5.75;82.40;98366.28;1750759;82;21461;-75
2021/10/04 00:33:02;;;;;;;9.68;6.70;;;;;;;5.79;82.99;98361.45;1756798;81;21064;-75
2021/10/04 00:35:29;;;;;;;11.63;6.70;;;;;;;5.83;82.93;98363.63;1769399;81;21048;-75
2021/10/04 00:37:56;;;;;;;11.90;7.65;;;;;;;5.82;82.82;98367.14;1777131;80;20984;-75
2021/10/04 00:40:28;;;;;;;11.35;7.33;;;;;;;5.83;83.14;98370.20;1779215;80;21062;-75
2021/10/04 00:42:55;;;;;;;16.30;7.90;;;;;;;5.83;83.23;98365.36;1778488;80;20989;-75
2021/10/04 00:45:24;;;;;;;13.62;8.90;;;;;;;5.87;84.40;98365.36;1779181;80;21009;-75
2021/10/04 00:47:51;;;;;;;16.37;8.80;;;;;;;5.86;83.92;98367.53;1769032;80;20966;-75
2021/10/04 00:50:20;;;;;;;18.00;8.33;;;;;;;5.83;85.05;98369.31;1757322;80;21025;-76
2021/10/04 00:52:47;;;;;;;18.15;9.78;;;;;;;5.87;83.97;98365.79;1751173;80;21396;-75
2021/10/04 00:55:13;;;;;;;23.73;10.13;;;;;;;5.89;83.93;98365.33;1753160;82;21049;-75
2021/10/04 00:57:42;;;;;;;16.87;9.23;;;;;;;5.86;83.55;98366.67;1753218;81;21494;-75
2021/10/04 01:00:14;;;;;;;17.00;9.35;;;;;;;5.86;83.76;98366.22;1752038;81;21045;-75
2021/10/04 01:02:41;;;;;;;15.85;8.73;;;;;;;5.80;83.22;98367.57;1753481;80;21050;-75
2021/10/04 01:05:09;;;;;;;15.23;9.68;;;;;;;5.77;83.08;98368.45;1753313;82;21009;-75
2021/10/04 01:07:37;;;;;;;19.32;9.48;;;;;;;5.74;83.11;98377.70;1753190;82;21113;-75
2021/10/04 01:10:05;;;;;;;15.95;9.20;;;;;;;5.72;82.79;98383.84;1749778;81;21081;-75
2021/10/04 01:12:33;;;;;;;18.27;8.28;;;;;;;5.68;82.91;98379.02;1746249;81;22098;-75
2021/10/04 01:15:00;;;;;;;15.25;9.60;;;;;;;5.64;83.05;98385.16;1713821;82;21480;-75
2021/10/04 01:17:26;;;;;;;15.75;8.98;;;;;;;5.57;82.46;98383.44;1728373;81;21014;-75
2021/10/04 01:19:53;;;;;;;12.93;8.18;;;;;;;5.47;82.04;98382.15;1764265;81;21023;-75
2021/10/04 01:22:19;;;;;;;13.22;8.28;;;;;;;5.38;81.96;98390.94;1754193;80;21460;-75
2021/10/04 01:24:46;;;;;;;14.85;8.63;;;;;;;5.34;82.09;98391.83;1753255;81;20962;-75
2021/10/04 01:27:12;;;;;;;15.03;8.28;;;;;;;5.28;81.95;98395.78;1753432;81;21021;-75
2021/10/04 01:29:39;;;;;;;13.62;8.30;;;;;;;5.21;82.10;98394.91;1757196;81;21001;-75
2021/10/04 01:32:07;;;;;;;14.10;7.87;;;;;;;5.14;82.00;98390.10;1753355;81;21396;-75
2021/10/04 01:34:34;;;;;;;15.00;8.50;;;;;;;5.08;82.04;98398.00;1752586;81;21045;-75
2021/10/04 01:37:00;;;;;;;14.43;8.35;;;;;;;5.01;82.15;98395.81;1744937;82;21011;-75
2021/10/04 01:39:27;;;;;;;12.93;8.00;;;;;;;4.98;81.97;98399.74;1763040;81;21031;-75
2021/10/04 01:41:53;;;;;;;14.63;8.20;;;;;;;4.92;82.07;98394.50;1749495;81;21006;-75
2021/10/04 01:44:20;;;;;;;16.30;9.23;;;;;;;4.89;82.22;98398.00;1744900;82;21050;-75
2021/10/04 01:46:47;;;;;;;14.85;8.58;;;;;;;4.86;82.17;98403.24;1744805;82;20983;-75
2021/10/04 01:49:13;;;;;;;14.43;8.68;;;;;;;4.78;82.54;98397.14;1769401;81;21443;-75
2021/10/04 01:51:39;;;;;;;16.23;8.43;;;;;;;4.75;82.56;98398.02;1747089;81;20999;-75
2021/10/04 01:54:07;;;;;;;15.00;8.25;;;;;;;4.72;82.53;98406.30;1744561;82;21098;-75
2021/10/04 01:56:33;;;;;;;17.45;9.05;;;;;;;4.68;82.58;98403.23;1744819;81;21455;-75
2021/10/04 01:59:00;;;;;;;13.38;8.20;;;;;;;4.68;82.51;98400.60;1744990;81;21009;-75
2021/10/04 02:01:26;;;;;;;11.83;7.00;;;;;;;4.65;84.13;98402.79;1744513;82;21010;-75
2021/10/04 02:03:54;;;;;;;14.45;7.58;;;;;;;4.63;83.00;98400.61;1763738;81;20984;-75
2021/10/04 02:06:23;;;;;;;14.85;7.78;;;;;;;4.59;84.92;98402.80;1748192;81;21004;-75
2021/10/04 02:08:49;;;;;;;15.75;8.25;;;;;;;4.54;83.47;98392.73;1765300;81;21040;-75
2021/10/04 02:11:16;;;;;;;14.78;8.23;;;;;;;4.53;83.70;98403.65;1764991;81;21020;-75
2021/10/04 02:13:43;;;;;;;15.18;7.47;;;;;;;4.53;83.17;98406.73;1749341;81;20998;-75
2021/10/04 02:16:09;;;;;;;11.53;7.15;;;;;;;4.49;84.18;98410.65;1765062;81;21453;-75
2021/10/04 02:18:36;;;;;;;13.28;7.47;;;;;;;4.47;83.58;98408.47;1754314;80;20994;-75
2021/10/04 02:21:24;;;;;;;12.23;6.90;;;;;;;4.49;83.67;98407.17;1744877;82;21038;-75
2021/10/04 02:23:50;;;;;;;14.95;7.22;;;;;;;4.46;83.72;98406.73;1701267;84;21045;-75
2021/10/04 02:26:17;;;;;;;12.93;7.12;;;;;;;4.43;82.99;98415.01;1700183;83;21065;-75
2021/10/04 02:28:43;;;;;;;13.60;7.35;;;;;;;4.39;83.53;98414.59;1701295;84;21009;-75
2021/10/04 02:31:10;;;;;;;13.80;6.95;;;;;;;4.38;83.33;98419.38;1701228;84;21030;-75
2021/10/04 02:33:37;;;;;;;11.43;6.60;;;;;;;4.37;83.08;98418.52;1701303;84;21431;-75
2021/10/04 02:36:04;;;;;;;12.58;7.40;;;;;;;4.33;83.05;98418.92;1677200;84;21361;-75
2021/10/04 02:38:30;;;;;;;12.40;7.00;;;;;;;4.33;82.81;98421.55;1673121;86;21459;-75
2021/10/04 02:40:57;;;;;;;12.20;6.78;;;;;;;4.34;83.04;98427.68;1673507;85;21025;-75
2021/10/04 02:43:23;;;;;;;11.20;6.28;;;;;;;4.35;83.21;98424.18;1676084;85;21034;-75
2021/10/04 02:45:51;;;;;;;10.10;6.53;;;;;;;4.37;83.24;98419.83;1708623;83;21445;-75
2021/10/04 02:48:18;;;;;;;10.03;5.97;;;;;;;4.36;83.20;98425.92;1692118;83;21019;-75
2021/10/04 02:50:46;;;;;;;12.35;5.83;;;;;;;4.39;83.46;98421.15;1703765;83;21027;-75
2021/10/04 02:53:13;;;;;;;9.98;6.30;;;;;;;4.41;84.06;98424.64;1690451;85;21083;-75
2021/10/04 02:55:40;;;;;;;10.65;5.50;;;;;;;4.45;83.91;98427.27;1719029;83;21022;-75
2021/10/04 02:58:07;;;;;;;9.83;5.45;;;;;;;4.47;83.84;98427.27;1690553;85;21051;-75
2021/10/04 03:00:37;;;;;;;8.80;5.72;;;;;;;4.48;83.97;98428.59;1706638;83;21043;-75
2021/10/04 03:03:06;;;;;;;9.40;5.25;;;;;;;4.55;84.42;98435.16;1725503;83;20992;-75
2021/10/04 03:05:33;;;;;;;10.03;5.80;;;;;;;4.60;84.41;98436.04;1746464;82;21081;-75
2021/10/04 03:08:02;;;;;;;10.58;5.80;;;;;;;4.63;84.55;98434.74;1723823;83;21019;-75
2021/10/04 03:10:29;;;;;;;9.73;5.80;;;;;;;4.62;84.31;98427.75;1685280;85;21050;-75
2021/10/04 03:12:56;;;;;;;9.63;6.08;;;;;;;4.65;84.53;98432.98;1684940;85;21010;-75
2021/10/04 03:15:23;;;;;;;9.63;6.22;;;;;;;4.66;84.37;98433.88;1690200;83;21049;-75
2021/10/04 03:17:50;;;;;;;11.48;5.87;;;;;;;4.60;84.07;98434.30;1709683;83;21027;-75
2021/10/04 03:20:16;;;;;;;9.98;5.47;;;;;;;4.55;84.03;98437.78;1713566;83;20995;-75
2021/10/04 03:22:43;;;;;;;9.23;6.00;;;;;;;4.49;83.92;98438.21;1716171;83;21685;-74
2021/10/04 03:25:10;;;;;;;11.78;6.62;;;;;;;4.46;83.72;98441.27;1736771;82;21457;-75
2021/10/04 03:27:37;;;;;;;11.05;6.15;;;;;;;4.40;83.66;98443.44;1737609;83;21064;-75
2021/10/04 03:30:05;;;;;;;12.63;6.22;;;;;;;4.36;83.73;98444.30;1768397;81;21015;-75
2021/10/04 03:32:32;;;;;;;13.10;6.45;;;;;;;4.32;83.45;98443.88;1767873;81;21421;-75
2021/10/04 03:34:58;;;;;;;12.10;6.30;;;;;;;4.31;83.68;98444.30;1726471;81;20984;-75
2021/10/04 03:37:25;;;;;;;8.78;5.60;;;;;;;4.28;83.44;98435.09;1754190;81;21440;-75
2021/10/04 03:39:51;;;;;;;16.32;7.03;;;;;;;4.25;83.80;98443.39;1771123;81;20972;-75
2021/10/04 03:42:18;;;;;;;9.38;6.00;;;;;;;4.24;83.92;98442.54;1770874;81;21004;-75
2021/10/04 03:44:44;;;;;;;14.55;6.33;;;;;;;4.21;84.11;98447.34;1739376;81;21050;-75
2021/10/04 03:47:11;;;;;;;12.80;6.70;;;;;;;4.14;83.88;98449.91;1738044;81;21457;-75
2021/10/04 03:49:37;;;;;;;12.50;7.05;;;;;;;4.08;83.79;98446.39;1737840;83;21026;-75
2021/10/04 03:52:04;;;;;;;13.53;7.10;;;;;;;4.06;83.54;98446.83;1737752;83;21044;-75
2021/10/04 03:54:30;;;;;;;15.60;7.25;;;;;;;4.03;83.54;98452.52;1716312;81;21460;-75
2021/10/04 03:56:58;;;;;;;15.55;6.95;;;;;;;4.00;83.70;98440.27;1737703;82;21020;-75
2021/10/04 03:59:24;;;;;;;14.95;6.55;;;;;;;3.98;83.69;98441.98;1738156;81;20967;-75
2021/10/04 04:01:51;;;;;;;12.73;7.05;;;;;;;3.95;83.72;98443.30;1737572;83;21012;-75
2021/10/04 04:04:17;;;;;;;12.35;6.72;;;;;;;3.92;84.22;98449.41;1716689;81;21034;-75
2021/10/04 04:06:44;;;;;;;14.10;7.17;;;;;;;3.88;83.46;98454.61;1759074;81;21042;-75
2021/10/04 04:09:10;;;;;;;21.80;10.75;;;;;;;3.84;84.49;98452.42;1759067;81;21000;-75
2021/10/04 04:11:37;;;;;;;13.85;7.60;;;;;;;3.82;84.15;98451.09;1765560;80;21374;-75
2021/10/04 04:14:04;;;;;;;12.68;6.78;;;;;;;3.81;83.92;98449.34;1743947;82;21056;-75
2021/10/04 04:16:31;;;;;;;14.78;6.67;;;;;;;3.74;84.84;98456.72;1743957;82;20980;-75
2021/10/04 04:18:58;;;;;;;12.80;7.47;;;;;;;3.70;85.71;98458.91;1749584;80;21068;-75
2021/10/04 04:21:24;;;;;;;11.38;6.30;;;;;;;3.65;85.03;98468.50;1733440;81;21004;-75
2021/10/04 04:23:51;;;;;;;16.77;6.72;;;;;;;3.63;84.67;98470.22;1695214;83;21461;-75
2021/10/04 04:26:17;;;;;;;18.12;7.95;;;;;;;3.60;84.29;98477.63;1669106;85;21035;-75
2021/10/04 04:28:44;;;;;;;15.32;6.25;;;;;;;3.61;84.19;98476.75;1681295;84;21025;-75
2021/10/04 04:31:10;;;;;;;16.50;7.53;;;;;;;3.58;85.01;98480.69;1709320;84;21017;-75
2021/10/04 04:33:37;;;;;;;15.28;7.35;;;;;;;3.58;84.37;98479.38;1710312;84;21005;-75
2021/10/04 04:36:05;;;;;;;13.98;7.15;;;;;;;3.57;84.17;98477.59;1691476;84;21499;-75
2021/10/04 04:38:32;;;;;;;11.57;6.83;;;;;;;3.53;83.93;98475.39;1671996;83;20955;-74
2021/10/04 04:40:59;;;;;;;15.78;7.12;;;;;;;3.50;84.02;98478.44;1673200;83;21042;-75
2021/10/04 04:43:25;;;;;;;13.40;6.80;;;;;;;3.50;84.13;98478.44;1681725;84;21007;-75
2021/10/04 04:45:51;;;;;;;14.07;7.83;;;;;;;3.51;83.89;98475.83;1712050;84;21037;-75
2021/10/04 04:48:18;;;;;;;10.50;6.25;;;;;;;3.57;84.03;98486.77;1715271;83;21005;-75
2021/10/04 04:50:45;;;;;;;12.88;6.83;;;;;;;3.59;84.22;98484.16;1717647;82;21025;-75
2021/10/04 04:53:12;;;;;;;12.75;7.28;;;;;;;3.62;84.29;98485.50;1717278;83;20985;-75
2021/10/04 04:55:38;;;;;;;12.33;6.78;;;;;;;3.69;84.53;98478.99;1717346;83;20997;-75
2021/10/04 04:58:06;;;;;;;10.60;5.97;;;;;;;3.74;84.65;98477.70;1719568;83;21416;-75
2021/10/04 05:00:33;;;;;;;13.28;5.83;;;;;;;3.81;85.95;98481.23;1688895;83;21022;-75
2021/10/04 05:02:59;;;;;;;12.40;6.08;;;;;;;3.87;85.34;98476.47;1672260;84;20988;-75
2021/10/04 05:05:26;;;;;;;9.08;5.75;;;;;;;3.93;85.45;98479.11;1691098;83;21001;-75
2021/10/04 05:07:53;;;;;;;10.28;5.67;;;;;;;3.97;85.30;98476.95;1727483;82;20973;-75
2021/10/04 05:10:19;;;;;;;10.48;5.62;;;;;;;4.03;85.30;98475.66;1730043;83;20978;-75
2021/10/04 05:12:46;;;;;;;13.05;5.72;;;;;;;4.07;85.19;98474.81;1733145;83;21020;-75
2021/10/04 05:15:12;;;;;;;12.37;6.10;;;;;;;4.13;85.22;98477.02;1736480;81;21534;-75
2021/10/04 05:17:40;;;;;;;11.40;5.78;;;;;;;4.15;85.29;98475.30;1721217;82;21010;-75
2021/10/04 05:20:08;;;;;;;12.95;6.17;;;;;;;4.14;84.93;98470.89;1684044;84;21059;-76
2021/10/04 05:22:38;;;;;;;9.58;5.92;;;;;;;4.07;85.14;98473.95;1733806;82;21417;-75
2021/10/04 05:25:07;;;;;;;11.20;5.78;;;;;;;4.06;84.92;98474.38;1688763;83;21090;-75
2021/10/04 05:27:34;;;;;;;11.28;6.15;;;;;;;4.01;84.82;98479.15;1745360;82;21087;-75
2021/10/04 05:30:01;;;;;;;11.60;5.92;;;;;;;3.94;86.02;98481.75;1763719;81;20985;-75
2021/10/04 05:32:27;;;;;;;15.93;6.55;;;;;;;3.93;86.04;98485.67;1753287;80;20993;-75
2021/10/04 05:34:54;;;;;;;11.30;6.50;;;;;;;3.94;84.82;98483.48;1748855;82;21019;-75
2021/10/04 05:37:20;;;;;;;15.13;6.58;;;;;;;3.94;85.30;98486.99;1751032;81;21462;-75
2021/10/04 05:39:47;;;;;;;11.20;6.53;;;;;;;3.94;84.96;98484.80;1779706;81;21005;-75
2021/10/04 05:42:13;;;;;;;12.28;6.30;;;;;;;3.96;84.87;98483.94;1756523;81;21474;-75
2021/10/04 05:44:40;;;;;;;14.65;5.95;;;;;;;3.99;84.40;98479.59;1748795;82;20977;-75
2021/10/04 05:47:07;;;;;;;13.05;6.87;;;;;;;3.99;84.66;98471.30;1768190;81;20997;-75
2021/10/04 05:49:34;;;;;;;12.40;7.42;;;;;;;4.03;84.73;98476.97;1779590;81;21008;-75
2021/10/04 05:52:01;;;;;;;14.58;7.80;;;;;;;4.06;84.86;98477.00;1759526;81;20992;-75
2021/10/04 05:54:27;;;;;;;19.57;9.93;;;;;;;4.10;85.15;98472.64;1748748;82;21338;-75
2021/10/04 05:56:54;;;;;;;17.00;10.08;;;;;;;4.16;84.78;98475.73;1734158;81;20982;-75
2021/10/04 05:59:20;;;;;;;17.32;12.13;;;;;;;4.18;84.66;98477.48;1721387;83;20999;-75
2021/10/04 06:01:47;;;;;;;22.20;12.00;;;;;;;4.22;84.91;98475.75;1735827;82;20973;-75
2021/10/04 06:04:13;;;;;;;23.32;12.90;;;;;;;4.26;84.50;98480.14;1722599;83;21051;-75
2021/10/04 06:06:39;;;;;;;19.37;11.45;;;;;;;4.33;84.93;98475.80;1722481;83;21040;-75
2021/10/04 06:09:06;;;;;;;22.48;10.82;;;;;;;4.39;84.88;98476.27;1741454;82;21450;-75
2021/10/04 06:11:33;;;;;;;33.83;20.10;;;;;;;4.46;85.04;98469.72;1739428;82;20984;-75
2021/10/04 06:14:00;;;;;;;44.53;26.30;;;;;;;4.54;84.64;98474.09;1722468;83;20957;-75
2021/10/04 06:16:27;;;;;;;17.00;11.43;;;;;;;4.64;85.23;98473.70;1726158;82;20992;-74
2021/10/04 06:18:53;;;;;;;17.95;10.15;;;;;;;4.72;84.72;98469.31;1752269;82;21027;-75
2021/10/04 06:21:19;;;;;;;16.23;9.83;;;;;;;4.83;84.67;98470.23;1742495;82;20997;-75
2021/10/04 06:23:45;;;;;;;16.42;9.45;;;;;;;4.96;86.01;98482.05;1708822;82;21018;-75
2021/10/04 06:26:12;;;;;;;16.25;10.05;;;;;;;5.06;85.25;98464.09;1682446;84;21460;-75
2021/10/04 06:28:38;;;;;;;12.88;7.10;;;;;;;5.18;84.86;98459.74;1666834;86;21000;-75
2021/10/04 06:31:05;;;;;;;11.43;5.92;;;;;;;5.30;84.71;98468.91;1683891;85;21074;-75
2021/10/04 06:33:31;;;;;;;13.88;6.33;;;;;;;5.39;84.19;98461.45;1694650;84;21398;-75
2021/10/04 06:35:58;;;;;;;12.28;6.78;;;;;;;5.49;84.29;98465.82;1707062;83;21071;-75
2021/10/04 06:38:24;;;;;;;15.00;9.08;;;;;;;5.57;83.90;98468.89;1687273;84;21054;-74
2021/10/04 06:40:51;;;;;;;14.75;8.38;;;;;;;5.65;84.35;98464.05;1679685;84;21466;-75
2021/10/04 06:43:18;;;;;;;13.90;8.38;;;;;;;5.74;84.59;98454.39;1736440;83;21001;-75
2021/10/04 06:45:45;;;;;;;13.80;8.50;;;;;;;5.83;84.03;98457.00;1723352;83;21064;-75
2021/10/04 06:48:11;;;;;;;13.05;8.20;;;;;;;5.93;84.00;98454.77;1682210;84;20979;-75
2021/10/04 06:50:38;;;;;;;21.65;8.40;;;;;;;6.03;83.87;98454.31;1685570;84;21447;-75
2021/10/04 06:53:04;;;;;;;14.35;8.30;;;;;;;6.15;84.02;98456.03;1736297;83;21033;-75
2021/10/04 06:55:31;;;;;;;13.93;8.20;;;;;;;6.28;84.26;98458.19;1723593;83;21052;-74
2021/10/04 06:57:58;;;;;;;16.42;8.88;;;;;;;6.39;83.79;98459.89;1694327;83;21014;-75
2021/10/04 07:00:24;;;;;;;14.15;8.48;;;;;;;6.51;84.38;98465.53;1656905;84;21062;-75
2021/10/04 07:02:53;;;;;;;15.65;8.90;;;;;;;6.64;83.72;98467.19;1670323;84;21067;-75
2021/10/04 07:05:22;;;;;;;14.10;8.13;;;;;;;6.77;83.55;98465.81;1681383;84;21008;-75
2021/10/04 07:07:51;;;;;;;14.15;8.25;;;;;;;6.89;83.16;98469.66;1721685;83;21044;-75
2021/10/04 07:10:17;;;;;;;12.70;8.05;;;;;;;7.00;82.98;98470.91;1723582;83;21046;-75
2021/10/04 07:12:44;;;;;;;12.40;8.05;;;;;;;7.10;82.89;98473.91;1700312;84;21037;-75
2021/10/04 07:15:12;;;;;;;11.03;6.85;;;;;;;7.22;82.83;98478.64;1694426;83;21429;-75
2021/10/04 07:17:39;;;;;;;12.40;7.05;;;;;;;7.33;83.01;98474.60;1707330;82;20968;-75
2021/10/04 07:20:07;;;;;;;13.20;7.40;;;;;;;7.44;82.52;98479.79;1702992;82;21032;-75
2021/10/04 07:22:35;;;;;;;12.43;7.08;;;;;;;7.57;82.43;98476.59;1711731;84;21057;-76
2021/10/04 07:25:05;;;;;;;16.30;8.53;;;;;;;7.66;82.00;98476.07;1701243;84;22059;-75
2021/10/04 07:27:32;;;;;;;14.70;7.33;;;;;;;7.79;81.75;98465.38;1741525;80;21027;-75
2021/10/04 07:30:00;;;;;;;14.47;8.25;;;;;;;7.91;81.47;98456.45;1728734;82;21079;-74
2021/10/04 07:32:26;;;;;;;14.83;7.65;;;;;;;8.05;81.28;98458.92;1728788;83;21019;-75
2021/10/04 07:34:52;;;;;;;11.80;7.20;;;;;;;8.18;80.99;98458.35;1728494;83;21447;-75
2021/10/04 07:37:19;;;;;;;11.88;7.25;;;;;;;8.28;80.68;98463.05;1769210;80;20984;-75
2021/10/04 07:39:45;;;;;;;12.70;6.83;;;;;;;8.38;80.57;98461.19;1752555;80;21478;-75
2021/10/04 07:42:12;;;;;;;13.65;8.00;;;;;;;8.48;80.27;98459.27;1732483;81;20973;-75
2021/10/04 07:44:42;;;;;;;13.43;9.08;;;;;;;8.61;80.32;98461.33;1742490;82;21289;-76
2021/10/04 07:47:11;;;;;;;18.65;9.55;;;;;;;8.72;79.51;98458.08;1738237;81;22091;-75
2021/10/04 07:49:42;;;;;;;14.38;10.10;;;;;;;8.84;78.74;98455.27;1719065;82;21161;-76
2021/10/04 07:52:14;;;;;;;15.58;10.13;;;;;;;8.97;79.23;98455.95;1733768;82;21639;-76
2021/10/04 07:54:44;;;;;;;18.73;9.33;;;;;;;9.07;79.19;98451.41;1727814;82;21664;-76
2021/10/04 07:57:13;;;;;;;14.90;9.03;;;;;;;9.17;78.88;98453.90;1745247;81;21536;-78
2021/10/04 07:59:48;;;;;;;12.70;8.43;;;;;;;9.28;78.07;98453.70;1760595;81;21095;-76
2021/10/04 08:02:21;;;;;;;17.12;10.15;;;;;;;9.40;78.24;98448.21;1767868;81;21088;-77
2021/10/04 08:04:49;;;;;;;18.05;10.18;;;;;;;9.54;78.21;98445.78;1767858;81;21660;-78
2021/10/04 08:07:21;;;;;;;18.25;10.60;;;;;;;9.63;77.43;98441.17;1749978;81;21051;-78
2021/10/04 08:09:52;;;;;;;20.85;10.30;;;;;;;9.75;77.42;98441.84;1748680;82;21496;-79
2021/10/04 08:12:23;;;;;;;16.02;10.65;;;;;;;9.86;77.10;98439.88;1753825;82;20970;-77
2021/10/04 08:14:49;;;;;;;18.87;10.43;;;;;;;9.97;76.61;98437.46;1753675;82;21050;-77
2021/10/04 08:17:22;;;;;;;16.80;11.43;;;;;;;10.14;76.87;98437.97;1736532;81;21094;-78
2021/10/04 08:19:52;;;;;;;21.95;11.90;;;;;;;10.29;76.55;98435.91;1736172;82;21071;-78
2021/10/04 08:22:20;;;;;;;22.17;10.90;;;;;;;10.41;76.42;98435.66;1734916;82;21603;-77
2021/10/04 08:24:52;;;;;;;22.75;11.68;;;;;;;10.54;76.36;98438.05;1708323;82;21032;-79
2021/10/04 08:27:22;;;;;;;15.72;10.50;;;;;;;10.65;76.24;98436.50;1669915;85;21075;-76
2021/10/04 08:29:50;;;;;;;23.75;15.88;;;;;;;10.77;76.48;98435.34;1689734;84;21043;-73
2021/10/04 08:32:17;;;;;;;25.35;13.45;;;;;;;10.90;75.73;98432.83;1698965;84;21075;-74
2021/10/04 08:34:43;;;;;;;24.25;13.32;;;;;;;11.03;76.41;98431.19;1699532;84;21032;-74
2021/10/04 08:37:10;;;;;;;21.50;12.05;;;;;;;11.16;75.56;98426.01;1680906;84;21014;-73
2021/10/04 08:39:36;;;;;;;23.90;12.00;;;;;;;11.32;75.09;98428.27;1675851;85;21464;-73
2021/10/04 08:42:03;;;;;;;22.60;12.45;;;;;;;11.49;75.20;98430.04;1671339;85;21028;-73
2021/10/04 08:44:30;;;;;;;29.15;19.27;;;;;;;11.60;73.81;98423.57;1671695;85;21512;-74
2021/10/04 08:46:57;;;;;;;21.97;13.30;;;;;;;11.72;73.67;98419.72;1685312;84;21023;-76
2021/10/04 08:49:26;;;;;;;25.62;12.47;;;;;;;11.84;74.11;98418.50;1711394;84;21016;-76
2021/10/04 08:51:52;;;;;;;20.10;12.75;;;;;;;11.95;72.60;98420.39;1698873;84;21031;-73
2021/10/04 08:54:24;;;;;;;19.62;12.90;;;;;;;12.04;72.86;98417.92;1691406;85;21086;-74
2021/10/04 08:56:47;;;;;;;24.05;13.70;;;;;;;12.15;72.70;98416.33;1691190;84;21027;-74
2021/10/04 08:59:15;;;;;;;24.20;14.05;;;;;;;12.24;72.16;98417.38;1675958;85;21092;-74
2021/10/04 09:01:42;;;;;;;21.52;13.13;;;;;;;12.30;71.14;98419.00;1653410;85;21022;-74
2021/10/04 09:04:08;;;;;;;17.27;12.43;;;;;;;12.38;72.12;98408.98;1655453;85;21048;-73
2021/10/04 09:06:39;;;;;;;22.10;13.53;;;;;;;12.44;71.87;98412.38;1692851;85;21016;-73
2021/10/04 09:09:12;;;;;;;21.68;13.18;;;;;;;12.51;71.71;98413.95;1691701;84;21044;-74
2021/10/04 09:11:47;;;;;;;27.70;12.82;;;;;;;12.57;71.42;98406.25;1701071;84;20995;-74
2021/10/04 09:14:30;;;;;;;22.45;13.18;;;;;;;12.66;70.75;98410.80;1713672;84;21005;-73
2021/10/04 09:17:03;;;;;;;21.80;14.15;;;;;;;12.76;70.89;98415.84;1699994;84;21444;-73
2021/10/04 09:19:36;;;;;;;19.55;13.20;;;;;;;12.84;70.74;98404.50;1692360;85;20996;-74
2021/10/04 09:22:19;;;;;;;23.22;13.40;;;;;;;12.91;69.70;98397.16;1683603;85;21000;-74
2021/10/04 09:25:03;;;;;;;21.42;12.35;;;;;;;13.00;70.55;98392.02;1721369;82;21000;-74
2021/10/04 09:27:47;;;;;;;17.77;12.00;;;;;;;13.12;68.86;98395.59;1723767;83;20976;-74
2021/10/04 09:30:26;;;;;;;16.77;11.60;;;;;;;13.25;69.60;98392.53;1733529;81;20987;-74
2021/10/04 09:32:57;;;;;;;18.37;11.78;;;;;;;13.37;68.17;98377.92;1733586;81;21027;-74
2021/10/04 09:35:28;;;;;;;17.30;11.70;;;;;;;13.53;67.89;98380.48;1726529;83;21450;-74
2021/10/04 09:38:03;;;;;;;21.02;11.05;;;;;;;13.66;68.66;98366.73;1718806;83;21052;-74
2021/10/04 09:40:40;;;;;;;19.95;10.93;;;;;;;13.76;68.71;98370.80;1755086;81;21007;-74
2021/10/04 09:43:11;;;;;;;14.80;10.23;;;;;;;13.88;68.59;98369.48;1766880;81;21000;-74
2021/10/04 09:45:38;;;;;;;20.75;11.57;;;;;;;13.99;67.98;98365.06;1757399;81;21066;-75
2021/10/04 09:48:12;;;;;;;15.38;9.30;;;;;;;14.12;65.33;98370.34;1767031;81;20976;-75
2021/10/04 09:50:41;;;;;;;10.72;8.50;;;;;;;14.23;66.97;98370.39;1736366;81;20987;-75
2021/10/04 09:53:12;;;;;;;15.18;8.53;;;;;;;14.32;65.58;98364.70;1706925;84;21055;-75
2021/10/04 09:55:43;;;;;;;31.15;18.25;;;;;;;14.50;65.41;98360.44;1719340;81;21007;-75
2021/10/04 09:58:23;;;;;;;13.03;8.23;;;;;;;14.68;65.85;98352.64;1769929;81;21047;-75
2021/10/04 10:01:04;;;;;;;14.07;7.28;;;;;;;14.82;65.30;98360.59;1734817;82;21433;-75
2021/10/04 10:03:45;;;;;;;11.93;7.05;;;;;;;14.93;64.96;98361.45;1736814;83;21067;-75
2021/10/04 10:06:11;;;;;;;10.05;7.00;;;;;;;15.04;65.04;98355.22;1725734;81;21503;-75
2021/10/04 10:08:39;;;;;;;12.23;6.87;;;;;;;15.22;63.42;98353.56;1706274;81;21024;-74
2021/10/04 10:11:06;;;;;;;12.58;7.28;;;;;;;15.35;63.72;98342.34;1767401;81;21047;-75
2021/10/04 10:13:35;;;;;;;12.60;7.05;;;;;;;15.47;63.82;98349.83;1767276;81;21433;-75
2021/10/04 10:16:13;;;;;;;14.25;7.37;;;;;;;15.61;62.18;98349.20;1767245;81;21476;-75
2021/10/04 10:18:54;;;;;;;14.93;7.53;;;;;;;15.67;62.27;98343.61;1737823;81;21035;-75
2021/10/04 10:21:25;;;;;;;17.73;7.10;;;;;;;15.78;61.90;98336.42;1767324;81;20985;-75
2021/10/04 10:24:01;;;;;;;12.85;7.35;;;;;;;15.91;61.93;98335.88;1764888;81;21480;-76
2021/10/04 10:26:49;;;;;;;13.43;6.12;;;;;;;16.10;61.14;98329.22;1742623;82;21371;-76
2021/10/04 10:29:22;;;;;;;10.08;6.10;;;;;;;16.67;60.20;98328.77;1704605;82;20984;-76
2021/10/04 10:31:57;;;;;;;13.55;6.37;;;;;;;17.84;57.94;98321.51;1683027;85;21046;-76
2021/10/04 10:34:39;;;;;;;9.68;5.97;;;;;;;19.04;55.36;98306.78;1682514;85;21140;-75
2021/10/04 10:37:28;;;;;;;9.70;6.15;;;;;;;20.33;54.15;98307.46;1682936;85;21001;-76
2021/10/04 10:40:14;;;;;;;12.37;5.55;;;;;;;21.76;51.16;98297.45;1693231;82;21016;-76
2021/10/04 10:43:03;;;;;;;10.45;5.58;;;;;;;22.89;43.98;98299.70;1671367;84;21017;-76
2021/10/04 10:45:47;;;;;;;7.12;5.50;;;;;;;23.73;43.29;98282.95;1707217;84;21052;-75
2021/10/04 10:48:15;;;;;;;8.90;5.85;;;;;;;24.81;41.03;98272.46;1713726;84;21489;-75
2021/10/04 10:50:49;;;;;;;7.90;5.87;;;;;;;25.87;40.39;98285.22;1689276;82;21398;-76
2021/10/04 10:53:26;;;;;;;6.78;5.30;;;;;;;26.81;42.00;98282.33;1726250;82;21046;-76
2021/10/04 10:56:06;;;;;;;7.70;5.62;;;;;;;27.67;40.29;98267.95;1713670;83;21043;-76
2021/10/04 10:58:35;;;;;;;7.45;5.70;;;;;;;28.42;37.77;98263.95;1713406;82;21018;-76
2021/10/04 11:01:16;;;;;;;9.00;5.35;;;;;;;28.97;34.94;98259.39;1717739;82;20957;-76
2021/10/04 11:03:53;;;;;;;10.70;5.87;;;;;;;29.10;31.11;98253.04;1733114;83;21023;-75
2021/10/04 11:06:38;;;;;;;8.05;6.45;;;;;;;29.93;32.99;98257.35;1732480;82;21516;-76
2021/10/04 11:09:06;;;;;;;10.63;6.12;;;;;;;30.22;31.28;98253.41;1730950;82;21543;-76
2021/10/04 11:11:34;;;;;;;7.67;6.47;;;;;;;30.49;28.12;98256.38;1703878;84;22230;-76
2021/10/04 11:14:08;;;;;;;8.90;6.00;;;;;;;30.77;31.33;98251.16;1726001;82;21008;-76
2021/10/04 11:16:42;;;;;;;10.93;6.47;;;;;;;31.08;28.29;98242.27;1733309;83;21406;-77
2021/10/04 11:19:20;;;;;;;10.10;6.10;;;;;;;31.52;29.86;98234.72;1706807;83;21110;-77
2021/10/04 11:21:49;;;;;;;7.28;5.90;;;;;;;31.72;27.52;98237.40;1676648;85;21419;-77
2021/10/04 11:24:19;;;;;;;8.63;6.37;;;;;;;32.14;29.21;98234.55;1730039;81;21043;-76
2021/10/04 11:26:46;;;;;;;9.58;6.28;;;;;;;32.56;27.70;98230.22;1763163;81;21044;-76
2021/10/04 11:29:13;;;;;;;6.65;5.53;;;;;;;32.53;25.60;98219.95;1760907;81;20992;-75
2021/10/04 11:31:45;;;;;;;8.58;5.95;;;;;;;32.30;26.89;98222.61;1728531;82;21002;-76
2021/10/04 11:34:16;;;;;;;6.25;5.30;;;;;;;31.59;26.80;98216.58;1730441;83;20969;-75
2021/10/04 11:36:53;;;;;;;8.95;6.00;;;;;;;30.29;27.52;98220.27;1730294;83;21045;-75